Time;durP1;ratioP1;P1;durP2;ratioP2;P2;SDS_P1;SDS_P2;PMS_P1;PMS_P2;Temp;Humidity;BMP_temperature;BMP_pressure;BME280_temperature;BME280_humidity;BME280_pressure;Samples;Min_cycle;Max_cycle;Signal;HPM_P1;HPM_P2
2024/01/21 00:02:23;;;;;;;12.18;7.38;;;;;;;-1.80;59.38;94811.06;5114777;28;20036;-67
2024/01/21 00:04:49;;;;;;;11.95;7.10;;;;;;;-1.44;59.61;94830.22;5114668;28;20023;-67
2024/01/21 00:07:14;;;;;;;12.43;6.93;;;;;;;-1.22;58.96;94803.75;5115386;28;20543;-67
2024/01/21 00:09:39;;;;;;;11.63;7.38;;;;;;;-1.10;58.04;94826.31;5114490;28;20032;-67
2024/01/21 00:12:05;;;;;;;11.60;7.60;;;;;;;-0.83;57.55;94823.44;5114140;28;20510;-67
2024/01/21 00:14:30;;;;;;;12.40;7.50;;;;;;;-0.56;56.80;94824.72;5114300;28;20396;-67
2024/01/21 00:16:56;;;;;;;13.10;6.78;;;;;;;-0.45;56.49;94826.59;5113855;28;20081;-67
2024/01/21 00:19:21;;;;;;;12.30;6.28;;;;;;;-0.38;56.18;94835.13;5115089;28;20691;-67
2024/01/21 00:21:46;;;;;;;9.15;6.10;;;;;;;-0.24;55.97;94835.78;5114405;28;20055;-67
2024/01/21 00:24:12;;;;;;;8.15;5.50;;;;;;;-0.27;55.41;94821.34;5114404;28;20039;-67
2024/01/21 00:26:37;;;;;;;9.15;5.47;;;;;;;-0.13;55.11;94846.28;5114218;28;20062;-67
2024/01/21 00:29:02;;;;;;;10.45;6.13;;;;;;;-0.20;54.87;94816.03;5095996;28;20024;-67
2024/01/21 00:31:28;;;;;;;7.25;4.10;;;;;;;-0.07;54.89;94837.56;5114395;28;20030;-67
2024/01/21 00:33:53;;;;;;;7.28;4.60;;;;;;;-0.12;54.51;94834.81;5114138;28;20028;-67
2024/01/21 00:36:19;;;;;;;8.10;4.38;;;;;;;-0.03;54.39;94837.09;5113251;28;20531;-67
2024/01/21 00:38:45;;;;;;;5.05;3.70;;;;;;;-0.01;54.33;94837.69;5113865;28;20114;-68
2024/01/21 00:41:14;;;;;;;4.72;3.83;;;;;;;-0.11;54.10;94833.81;5114173;28;20507;-67
2024/01/21 00:43:40;;;;;;;3.92;3.50;;;;;;;0.04;54.33;94853.53;5113426;28;20051;-67
2024/01/21 00:46:07;;;;;;;4.43;3.53;;;;;;;-0.05;54.00;94839.16;5114430;28;20057;-67
2024/01/21 00:48:33;;;;;;;4.95;3.70;;;;;;;-0.43;54.39;94837.63;5112995;28;20034;-67
2024/01/21 00:50:59;;;;;;;6.43;3.47;;;;;;;-0.22;54.23;94828.50;5112400;28;20036;-67
2024/01/21 00:53:24;;;;;;;6.07;3.42;;;;;;;-0.30;54.10;94813.16;5112390;28;20023;-67
2024/01/21 00:55:49;;;;;;;6.38;3.60;;;;;;;0.05;53.83;94852.50;5111855;28;20027;-67
2024/01/21 00:58:15;;;;;;;4.30;3.50;;;;;;;-0.02;53.81;94834.28;5112427;28;20476;-67
2024/01/21 01:00:40;;;;;;;4.53;2.95;;;;;;;-0.12;53.90;94829.59;5112104;28;20433;-67
2024/01/21 01:03:06;;;;;;;3.97;3.28;;;;;;;0.04;53.54;94832.59;5112193;28;20042;-67
2024/01/21 01:05:31;;;;;;;4.70;3.42;;;;;;;0.03;53.43;94831.78;5112149;28;20507;-67
2024/01/21 01:07:56;;;;;;;4.53;3.33;;;;;;;-0.10;53.51;94832.78;5111866;28;20377;-67
2024/01/21 01:10:22;;;;;;;5.05;3.80;;;;;;;-0.03;53.59;94834.50;5112455;28;20023;-67
2024/01/21 01:12:47;;;;;;;4.70;3.90;;;;;;;0.12;53.07;94845.34;5112196;28;20038;-67
2024/01/21 01:15:13;;;;;;;4.03;3.40;;;;;;;0.14;53.08;94843.31;5112567;28;20123;-67
2024/01/21 01:17:38;;;;;;;4.82;3.38;;;;;;;0.11;53.09;94851.59;5112918;28;20404;-67
2024/01/21 01:20:05;;;;;;;3.53;2.92;;;;;;;-0.04;53.22;94835.53;5113244;28;20038;-67
2024/01/21 01:22:30;;;;;;;5.32;3.25;;;;;;;0.03;53.58;94857.16;5113844;28;20019;-67
2024/01/21 01:24:55;;;;;;;5.05;3.45;;;;;;;0.08;53.34;94854.66;5113096;28;20035;-67
2024/01/21 01:27:21;;;;;;;4.07;3.60;;;;;;;0.07;52.85;94846.03;5113232;28;20047;-67
2024/01/21 01:29:46;;;;;;;4.25;3.47;;;;;;;0.04;52.98;94853.53;5112690;28;20492;-67
2024/01/21 01:32:11;;;;;;;4.72;3.97;;;;;;;-0.02;53.04;94838.72;5113074;28;20047;-67
2024/01/21 01:34:38;;;;;;;5.07;3.75;;;;;;;0.04;53.07;94849.09;5112916;28;20465;-67
2024/01/21 01:37:04;;;;;;;8.82;3.92;;;;;;;-0.02;53.23;94843.94;5113320;28;20016;-67
2024/01/21 01:39:29;;;;;;;5.50;3.60;;;;;;;-0.20;53.84;94834.34;5112772;28;20032;-67
2024/01/21 01:41:58;;;;;;;4.95;4.10;;;;;;;-0.07;53.65;94842.78;5112967;28;20038;-67
2024/01/21 01:44:23;;;;;;;4.25;3.85;;;;;;;-0.02;53.35;94839.50;5112482;28;20484;-68
2024/01/21 01:46:48;;;;;;;5.20;3.70;;;;;;;-0.07;53.11;94827.09;5112413;28;20041;-67
2024/01/21 01:49:15;;;;;;;4.75;3.55;;;;;;;-0.08;52.90;94832.53;5113064;28;20033;-67
2024/01/21 01:51:41;;;;;;;5.88;3.92;;;;;;;-0.08;53.02;94843.81;5111850;28;20123;-67
2024/01/21 01:54:07;;;;;;;3.38;3.00;;;;;;;-0.04;53.04;94856.47;5112355;28;20036;-67
2024/01/21 01:56:33;;;;;;;8.43;4.28;;;;;;;-0.04;53.28;94852.00;5111793;28;20028;-67
2024/01/21 01:59:01;;;;;;;6.32;4.32;;;;;;;-0.01;53.20;94851.56;5112174;28;20107;-67
2024/01/21 02:01:28;;;;;;;4.20;3.75;;;;;;;-0.13;52.97;94841.06;5112703;28;20111;-67
2024/01/21 02:03:54;;;;;;;4.97;3.45;;;;;;;-0.54;53.83;94839.16;5111891;28;20023;-67
2024/01/21 02:06:20;;;;;;;4.70;3.00;;;;;;;-0.26;53.44;94853.50;5112438;28;20114;-67
2024/01/21 02:08:45;;;;;;;3.15;2.65;;;;;;;-0.62;53.40;94841.25;5111313;28;20094;-67
2024/01/21 02:11:11;;;;;;;4.20;2.90;;;;;;;-0.76;53.79;94827.56;5112070;28;20031;-67
2024/01/21 02:13:36;;;;;;;4.32;3.22;;;;;;;-0.72;54.34;94848.81;5112248;28;20067;-67
2024/01/21 02:16:02;;;;;;;4.80;3.53;;;;;;;-0.61;53.93;94835.81;5112626;28;20110;-67
2024/01/21 02:18:27;;;;;;;4.85;3.03;;;;;;;-0.29;53.40;94854.75;5112169;28;20546;-67
2024/01/21 02:20:52;;;;;;;4.68;3.35;;;;;;;-0.25;53.13;94845.44;5111927;28;20031;-67
2024/01/21 02:23:18;;;;;;;5.95;3.47;;;;;;;-0.24;52.88;94856.72;5111840;28;20056;-67
2024/01/21 02:25:43;;;;;;;4.68;3.00;;;;;;;-0.29;52.77;94872.25;5111589;28;20051;-67
2024/01/21 02:28:08;;;;;;;5.70;3.28;;;;;;;-0.33;52.46;94842.31;5112335;28;20387;-67
2024/01/21 02:30:40;;;;;;;6.00;3.03;;;;;;;-0.57;52.32;94830.94;5111737;28;20040;-67
2024/01/21 02:33:06;;;;;;;3.47;2.90;;;;;;;-0.41;52.28;94869.56;5112071;28;20039;-67
2024/01/21 02:35:32;;;;;;;4.28;2.95;;;;;;;-0.68;52.48;94829.09;5112261;28;20032;-67
2024/01/21 02:37:57;;;;;;;3.17;2.45;;;;;;;-0.52;52.24;94863.25;5111890;28;20084;-67
2024/01/21 02:40:23;;;;;;;4.50;2.83;;;;;;;-0.44;51.98;94862.19;5112077;28;20027;-67
2024/01/21 02:42:48;;;;;;;2.60;2.40;;;;;;;-0.49;51.88;94869.06;5111500;28;20062;-67
2024/01/21 02:45:13;;;;;;;3.20;2.25;;;;;;;-0.60;52.05;94860.13;5093425;28;20050;-67
2024/01/21 02:47:39;;;;;;;3.42;2.40;;;;;;;-0.49;52.11;94884.75;5110953;28;20035;-68
2024/01/21 02:50:05;;;;;;;3.53;2.95;;;;;;;-0.47;52.09;94883.50;5111428;28;20036;-67
2024/01/21 02:52:30;;;;;;;4.70;2.78;;;;;;;-0.66;52.04;94863.63;5112331;28;20027;-67
2024/01/21 02:54:56;;;;;;;2.67;2.30;;;;;;;-0.57;52.26;94883.22;5111804;28;20035;-67
2024/01/21 02:57:21;;;;;;;2.78;2.47;;;;;;;-0.61;52.54;94879.44;5093031;28;20031;-67
2024/01/21 02:59:46;;;;;;;2.40;2.20;;;;;;;-0.59;52.22;94869.59;5111645;28;20035;-67
2024/01/21 03:02:12;;;;;;;3.13;2.60;;;;;;;-0.61;52.40;94888.09;5110992;28;20097;-67
2024/01/21 03:04:37;;;;;;;3.72;2.83;;;;;;;-1.07;53.37;94883.28;5093278;28;20530;-67
2024/01/21 03:07:03;;;;;;;5.25;2.75;;;;;;;-0.97;53.27;94882.81;5111925;28;20016;-67
2024/01/21 03:09:28;;;;;;;3.35;2.58;;;;;;;-0.84;52.93;94887.13;5111450;28;20496;-67
2024/01/21 03:11:56;;;;;;;4.65;3.20;;;;;;;-0.88;52.75;94881.53;5111048;28;20519;-67
2024/01/21 03:14:21;;;;;;;4.93;3.30;;;;;;;-0.81;52.01;94887.47;5111233;28;20624;-67
2024/01/21 03:16:47;;;;;;;5.10;3.58;;;;;;;-0.80;51.61;94893.50;5111206;28;20043;-67
2024/01/21 03:19:12;;;;;;;5.93;3.65;;;;;;;-0.93;51.62;94889.22;5112023;28;20016;-67
2024/01/21 03:21:37;;;;;;;3.30;2.70;;;;;;;-1.02;52.02;94888.69;5115471;28;20081;-67
2024/01/21 03:24:03;;;;;;;4.93;2.90;;;;;;;-1.04;51.95;94880.28;5115485;28;20426;-67
2024/01/21 03:26:28;;;;;;;6.07;3.42;;;;;;;-1.11;52.24;94891.78;5115261;28;20577;-67
2024/01/21 03:28:53;;;;;;;3.35;2.70;;;;;;;-1.22;52.49;94902.94;5115388;28;20024;-67
2024/01/21 03:31:19;;;;;;;5.15;3.92;;;;;;;-1.26;52.49;94905.16;5115658;28;20069;-67
2024/01/21 03:33:45;;;;;;;4.00;3.60;;;;;;;-1.41;52.23;94915.13;5115129;28;20122;-67
2024/01/21 03:36:11;;;;;;;4.00;2.50;;;;;;;-1.66;52.15;94854.28;5115274;28;20496;-67
2024/01/21 03:38:37;;;;;;;3.65;2.53;;;;;;;-1.55;51.67;94910.97;5115110;28;20046;-67
2024/01/21 03:41:03;;;;;;;3.92;3.05;;;;;;;-1.66;51.49;94902.06;5115358;28;20027;-67
2024/01/21 03:43:28;;;;;;;4.15;2.85;;;;;;;-1.71;51.79;94901.06;5115792;28;20023;-67
2024/01/21 03:45:54;;;;;;;4.55;3.03;;;;;;;-1.85;51.73;94901.13;5114954;28;20539;-67
2024/01/21 03:48:19;;;;;;;3.03;2.65;;;;;;;-1.83;51.57;94914.78;5115065;28;20656;-67
2024/01/21 03:50:44;;;;;;;4.97;2.90;;;;;;;-2.11;51.78;94890.88;5096319;28;20089;-67
2024/01/21 03:53:10;;;;;;;3.42;3.00;;;;;;;-1.91;52.17;94922.84;5114769;28;20039;-67
2024/01/21 03:55:35;;;;;;;4.47;3.05;;;;;;;-1.98;51.67;94924.69;5115105;28;20432;-67
2024/01/21 03:58:01;;;;;;;4.10;3.33;;;;;;;-1.98;51.83;94911.66;5115681;28;20054;-67
2024/01/21 04:00:26;;;;;;;4.93;3.40;;;;;;;-1.94;51.72;94919.84;5114546;28;20492;-67
2024/01/21 04:02:51;;;;;;;5.50;3.90;;;;;;;-1.87;51.65;94936.25;5114770;28;20042;-67
2024/01/21 04:05:17;;;;;;;5.60;3.50;;;;;;;-2.04;51.43;94935.94;5115031;28;20042;-67
2024/01/21 04:07:42;;;;;;;5.88;3.53;;;;;;;-2.03;51.89;94939.34;5114425;28;20472;-67
2024/01/21 04:10:09;;;;;;;6.07;3.53;;;;;;;-1.98;51.45;94950.75;5115350;28;20023;-67
2024/01/21 04:12:36;;;;;;;5.38;4.38;;;;;;;-1.92;51.11;94952.53;5114172;28;20092;-67
2024/01/21 04:15:02;;;;;;;4.45;3.67;;;;;;;-1.94;51.24;94954.53;5114492;28;20024;-67
2024/01/21 04:17:27;;;;;;;4.65;3.13;;;;;;;-1.96;51.40;94951.34;5114093;28;20028;-67
2024/01/21 04:19:52;;;;;;;3.75;3.20;;;;;;;-2.13;51.21;94945.00;5114779;28;20028;-67
2024/01/21 04:22:18;;;;;;;4.78;4.03;;;;;;;-2.09;51.65;94966.22;5114908;28;20023;-67
2024/01/21 04:24:46;;;;;;;6.00;4.47;;;;;;;-2.19;51.07;94950.25;5114474;28;20395;-67
2024/01/21 04:27:11;;;;;;;6.78;4.88;;;;;;;-2.29;51.65;94942.88;5114155;28;20051;-67
2024/01/21 04:29:37;;;;;;;5.35;4.40;;;;;;;-2.42;52.11;94942.91;5114168;28;20127;-67
2024/01/21 04:32:02;;;;;;;3.03;2.70;;;;;;;-2.39;52.50;94963.34;5113281;28;20130;-67
2024/01/21 04:34:28;;;;;;;3.83;2.88;;;;;;;-2.38;51.78;94959.72;5096655;28;20024;-67
2024/01/21 04:36:53;;;;;;;4.07;3.72;;;;;;;-2.52;52.38;94952.94;5114215;28;20064;-67
2024/01/21 04:39:21;;;;;;;3.72;3.00;;;;;;;-2.52;53.10;94945.94;5114111;28;20483;-67
2024/01/21 04:41:47;;;;;;;4.85;3.35;;;;;;;-2.44;52.42;94978.78;5114103;28;20035;-67
2024/01/21 04:44:12;;;;;;;6.03;3.25;;;;;;;-2.57;51.77;94963.16;5113780;28;20043;-67
2024/01/21 04:46:37;;;;;;;5.57;3.22;;;;;;;-2.67;52.26;94966.19;5113763;28;20031;-67
2024/01/21 04:49:03;;;;;;;4.50;3.38;;;;;;;-2.58;52.06;94977.22;5114262;28;20020;-67
2024/01/21 04:51:28;;;;;;;5.68;3.50;;;;;;;-2.53;51.56;94986.00;5113376;28;20024;-67
2024/01/21 04:53:54;;;;;;;3.75;2.92;;;;;;;-2.63;52.13;94979.63;5113962;28;20042;-67
2024/01/21 04:56:19;;;;;;;5.30;3.15;;;;;;;-2.70;52.36;94970.00;5113701;28;20051;-67
2024/01/21 04:58:45;;;;;;;3.55;2.80;;;;;;;-2.60;52.53;94987.03;5113521;28;20503;-67
2024/01/21 05:01:15;;;;;;;4.05;2.53;;;;;;;-2.49;51.24;94984.63;5113976;28;20051;-67
2024/01/21 05:03:41;;;;;;;4.80;3.35;;;;;;;-2.88;51.57;94990.66;5113635;28;20496;-67
2024/01/21 05:06:06;;;;;;;3.72;3.13;;;;;;;-2.89;52.38;94985.66;5113464;28;20050;-67
2024/01/21 05:08:32;;;;;;;3.78;2.90;;;;;;;-3.06;51.57;94985.25;5095239;28;20030;-67
2024/01/21 05:10:57;;;;;;;4.80;3.55;;;;;;;-2.88;53.47;95005.47;5113504;28;20569;-67
2024/01/21 05:13:23;;;;;;;6.72;4.28;;;;;;;-3.01;53.93;95003.66;5114043;28;20419;-67
2024/01/21 05:15:48;;;;;;;6.47;5.55;;;;;;;-3.16;54.35;95010.84;5113219;28;20054;-67
2024/01/21 05:18:14;;;;;;;6.55;5.43;;;;;;;-3.07;54.93;95019.28;5113191;28;20024;-67
2024/01/21 05:20:39;;;;;;;6.70;4.93;;;;;;;-2.99;53.90;95009.47;5113215;28;20038;-67
2024/01/21 05:23:04;;;;;;;8.02;5.13;;;;;;;-3.07;52.00;94999.25;5113266;28;20027;-67
2024/01/21 05:25:30;;;;;;;8.45;6.88;;;;;;;-3.11;52.66;95008.47;5113415;28;20088;-67
2024/01/21 05:27:58;;;;;;;8.25;5.70;;;;;;;-3.17;52.72;95012.66;5112854;28;20562;-67
2024/01/21 05:30:24;;;;;;;5.93;5.30;;;;;;;-3.03;52.38;95016.09;5094762;28;20042;-67
2024/01/21 05:32:50;;;;;;;12.20;7.80;;;;;;;-3.12;53.05;95025.06;5113020;28;20027;-67
2024/01/21 05:35:16;;;;;;;9.27;6.68;;;;;;;-3.09;53.12;95021.28;5112673;28;20027;-67
2024/01/21 05:37:42;;;;;;;9.30;6.43;;;;;;;-3.04;52.84;95035.31;5094700;28;20027;-67
2024/01/21 05:40:08;;;;;;;6.07;4.50;;;;;;;-3.03;53.51;95016.09;5113348;28;20011;-67
2024/01/21 05:42:34;;;;;;;6.20;3.90;;;;;;;-3.01;53.50;95019.28;5112893;28;20036;-67
2024/01/21 05:44:59;;;;;;;5.10;3.85;;;;;;;-2.89;53.01;95033.31;5112324;28;20039;-67
2024/01/21 05:47:24;;;;;;;6.00;4.07;;;;;;;-2.85;53.34;95044.94;5094046;28;20032;-67
2024/01/21 05:49:50;;;;;;;7.07;3.83;;;;;;;-2.96;53.14;95029.91;5112627;28;20028;-67
2024/01/21 05:52:15;;;;;;;4.88;3.45;;;;;;;-2.84;53.05;95038.72;5112897;28;20080;-67
2024/01/21 05:54:41;;;;;;;3.30;2.97;;;;;;;-2.95;52.21;95028.91;5112468;28;20020;-67
2024/01/21 05:57:06;;;;;;;4.25;3.38;;;;;;;-2.95;52.00;95047.13;5112292;28;20035;-67
2024/01/21 05:59:32;;;;;;;4.15;3.75;;;;;;;-3.03;52.37;95047.31;5112730;28;20035;-67
2024/01/21 06:01:57;;;;;;;5.63;4.70;;;;;;;-3.07;52.50;95048.69;5112576;28;20385;-67
2024/01/21 06:04:23;;;;;;;5.10;4.10;;;;;;;-3.02;52.90;95059.31;5112796;28;20028;-67
2024/01/21 06:06:49;;;;;;;4.60;3.78;;;;;;;-2.98;53.03;95067.56;5112383;28;20499;-67
2024/01/21 06:09:14;;;;;;;8.88;4.57;;;;;;;-3.02;53.46;95058.53;5112091;28;20080;-67
2024/01/21 06:11:40;;;;;;;8.15;5.07;;;;;;;-3.01;52.70;95047.91;5112047;28;20527;-67
2024/01/21 06:14:06;;;;;;;8.10;5.22;;;;;;;-3.06;52.78;95068.53;5112284;28;20156;-67
2024/01/21 06:16:32;;;;;;;6.18;4.88;;;;;;;-3.13;52.50;95057.31;5112226;28;20388;-67
2024/01/21 06:18:57;;;;;;;9.45;5.60;;;;;;;-3.18;53.38;95064.91;5112823;28;20106;-67
2024/01/21 06:21:22;;;;;;;6.72;5.40;;;;;;;-3.29;52.85;95061.09;5112059;28;20027;-67
2024/01/21 06:23:48;;;;;;;6.75;5.53;;;;;;;-3.30;53.78;95069.88;5112059;28;20460;-67
2024/01/21 06:26:19;;;;;;;10.25;7.43;;;;;;;-3.28;53.58;95067.91;5111810;28;20047;-67
2024/01/21 06:28:45;;;;;;;11.57;9.35;;;;;;;-3.53;55.06;95046.03;5093807;28;20427;-67
2024/01/21 06:31:11;;;;;;;12.65;9.20;;;;;;;-3.37;54.83;95065.69;5112359;28;20106;-67
2024/01/21 06:33:38;;;;;;;10.30;6.75;;;;;;;-3.17;54.66;95071.75;5111606;28;20369;-67
2024/01/21 06:36:03;;;;;;;10.95;6.97;;;;;;;-3.21;53.44;95054.88;5111706;28;20495;-67
2024/01/21 06:38:29;;;;;;;7.82;6.53;;;;;;;-3.37;54.36;95035.25;5111789;28;20056;-67
2024/01/21 06:40:54;;;;;;;10.90;6.47;;;;;;;-3.21;55.11;95070.50;5111462;28;20528;-67
2024/01/21 06:43:20;;;;;;;5.70;4.90;;;;;;;-3.10;54.91;95064.72;5112269;28;20550;-67
2024/01/21 06:45:45;;;;;;;5.78;4.47;;;;;;;-3.08;55.14;95075.75;5111815;28;20055;-67
2024/01/21 06:48:10;;;;;;;7.40;5.45;;;;;;;-3.20;55.38;95062.50;5111431;28;20036;-67
2024/01/21 06:50:36;;;;;;;6.65;4.13;;;;;;;-3.21;55.60;95070.50;5111371;28;20506;-67
2024/01/21 06:53:01;;;;;;;7.60;5.40;;;;;;;-2.99;55.36;95084.97;5111630;28;20070;-67
2024/01/21 06:55:26;;;;;;;5.50;4.18;;;;;;;-3.09;55.23;95068.13;5111471;28;20069;-67
2024/01/21 06:57:52;;;;;;;6.55;5.55;;;;;;;-3.04;55.49;95074.34;5111435;28;20042;-67
2024/01/21 07:00:18;;;;;;;5.60;4.93;;;;;;;-2.87;55.35;95096.38;5111420;28;20392;-67
2024/01/21 07:02:43;;;;;;;5.65;4.10;;;;;;;-2.84;55.07;95093.41;5093111;28;20088;-67
2024/01/21 07:05:09;;;;;;;6.18;3.78;;;;;;;-2.67;54.80;95082.59;5111621;28;20032;-67
2024/01/21 07:07:35;;;;;;;6.40;3.33;;;;;;;-2.84;54.94;95063.97;5111409;28;20055;-67
2024/01/21 07:10:00;;;;;;;4.70;3.72;;;;;;;-2.59;54.72;95091.03;5111541;28;20444;-67
2024/01/21 07:12:26;;;;;;;4.65;3.78;;;;;;;-2.62;54.49;95094.00;5111209;28;20028;-67
2024/01/21 07:14:51;;;;;;;4.25;3.22;;;;;;;-2.51;54.27;95087.41;5093155;28;20047;-67
2024/01/21 07:17:17;;;;;;;7.68;3.65;;;;;;;-2.45;54.14;95097.03;5111304;28;20114;-66
2024/01/21 07:19:42;;;;;;;10.90;5.65;;;;;;;-2.55;54.66;95109.66;5092685;28;20068;-67
2024/01/21 07:22:08;;;;;;;9.35;6.55;;;;;;;-2.58;54.53;95117.88;5111225;28;20020;-67
2024/01/21 07:24:34;;;;;;;8.10;4.82;;;;;;;-2.64;55.11;95108.25;5111212;28;20039;-67
2024/01/21 07:27:00;;;;;;;4.90;4.20;;;;;;;-2.57;54.96;95119.44;5111099;28;20086;-67
2024/01/21 07:29:25;;;;;;;5.10;3.63;;;;;;;-2.48;54.64;95103.41;5111072;28;20032;-67
2024/01/21 07:31:51;;;;;;;6.00;3.55;;;;;;;-2.37;54.14;95109.84;5111260;28;20524;-67
2024/01/21 07:34:16;;;;;;;5.15;3.10;;;;;;;-2.44;53.90;95098.63;5092894;28;20027;-67
2024/01/21 07:36:42;;;;;;;3.83;2.72;;;;;;;-2.23;53.57;95115.84;5110912;28;20101;-67
2024/01/21 07:39:07;;;;;;;5.13;2.83;;;;;;;-2.22;53.24;95112.22;5092428;28;20507;-67
2024/01/21 07:41:33;;;;;;;4.68;3.75;;;;;;;-2.27;53.51;95111.03;5092288;28;20040;-67
2024/01/21 07:43:59;;;;;;;4.70;3.40;;;;;;;-2.36;53.55;95103.63;5111242;28;20506;-67
2024/01/21 07:46:24;;;;;;;4.60;3.70;;;;;;;-1.99;53.46;95123.03;5111362;28;20019;-67
2024/01/21 07:48:50;;;;;;;5.15;4.63;;;;;;;-2.32;53.60;95125.66;5110961;28;20027;-67
2024/01/21 07:51:19;;;;;;;8.48;5.63;;;;;;;-2.19;54.18;95119.66;5111095;28;20122;-67
2024/01/21 07:53:45;;;;;;;8.85;6.43;;;;;;;-2.09;53.88;95123.44;5110791;28;20039;-67
2024/01/21 07:56:11;;;;;;;9.57;6.55;;;;;;;-2.20;53.92;95125.88;5110182;28;20028;-67
2024/01/21 07:58:37;;;;;;;11.70;7.32;;;;;;;-2.12;53.79;95123.06;5110886;28;20807;-67
2024/01/21 08:01:03;;;;;;;10.95;7.70;;;;;;;-2.06;53.65;95128.28;5111403;28;20051;-67
2024/01/21 08:03:28;;;;;;;16.88;7.57;;;;;;;-2.03;53.64;95117.44;5110896;28;20271;-67
2024/01/21 08:05:55;;;;;;;11.00;7.32;;;;;;;-1.85;53.03;95116.81;5092758;28;20040;-67
2024/01/21 08:08:20;;;;;;;9.32;6.55;;;;;;;-1.93;52.31;95115.19;5114637;28;20027;-67
2024/01/21 08:10:45;;;;;;;8.05;7.07;;;;;;;-2.60;54.20;95132.88;5114186;28;20030;-67
2024/01/21 08:13:11;;;;;;;10.82;7.88;;;;;;;-2.46;54.58;95134.50;5114665;28;20026;-67
2024/01/21 08:15:37;;;;;;;14.90;8.35;;;;;;;-2.57;54.49;95140.28;5114570;28;20404;-67
2024/01/21 08:18:05;;;;;;;16.20;7.60;;;;;;;-2.22;54.66;95128.69;5113974;28;20067;-67
2024/01/21 08:20:30;;;;;;;7.22;5.18;;;;;;;-2.11;53.47;95130.69;5114562;28;20038;-67
2024/01/21 08:22:56;;;;;;;8.13;6.00;;;;;;;-1.95;53.07;95135.44;5114655;28;20028;-67
2024/01/21 08:25:21;;;;;;;8.43;5.57;;;;;;;-2.13;52.59;95132.69;5114611;28;20019;-67
2024/01/21 08:27:47;;;;;;;7.07;5.45;;;;;;;-2.10;52.90;95134.09;5114535;28;20130;-68
2024/01/21 08:30:12;;;;;;;8.45;5.30;;;;;;;-2.34;53.22;95125.09;5114670;28;20055;-67
2024/01/21 08:32:38;;;;;;;9.02;5.95;;;;;;;-2.04;53.87;95146.28;5114099;28;20054;-67
2024/01/21 08:35:04;;;;;;;9.15;5.63;;;;;;;-1.93;52.31;95159.53;5114328;28;20024;-66
2024/01/21 08:37:30;;;;;;;8.15;5.50;;;;;;;-1.95;53.11;95166.75;5115173;28;20023;-69
2024/01/21 08:39:56;;;;;;;9.30;6.07;;;;;;;-1.87;52.16;95150.91;5095291;28;20089;-69
2024/01/21 08:42:23;;;;;;;9.77;5.78;;;;;;;-2.11;53.06;95141.09;5094991;28;20483;-68
2024/01/21 08:44:49;;;;;;;7.50;5.97;;;;;;;-2.31;53.01;95155.94;5094954;28;20377;-68
2024/01/21 08:47:14;;;;;;;9.07;5.97;;;;;;;-1.91;53.36;95162.75;5113019;28;20057;-68
2024/01/21 08:49:40;;;;;;;9.38;6.72;;;;;;;-2.04;52.72;95146.28;5113881;28;20020;-68
2024/01/21 08:52:05;;;;;;;12.85;8.07;;;;;;;-2.41;53.05;95117.25;5095970;28;20051;-68
2024/01/21 08:54:30;;;;;;;11.32;7.28;;;;;;;-2.46;54.37;95178.78;5112754;28;20031;-68
2024/01/21 08:56:56;;;;;;;11.40;7.95;;;;;;;-2.88;55.17;95148.69;5113769;28;20423;-68
2024/01/21 08:59:21;;;;;;;15.10;8.65;;;;;;;-2.77;55.37;95151.50;5113178;28;20027;-68
2024/01/21 09:01:47;;;;;;;10.57;7.20;;;;;;;-2.39;54.62;95148.34;5113766;28;20050;-68
2024/01/21 09:04:13;;;;;;;9.40;7.05;;;;;;;-2.32;53.42;95164.75;5113697;28;20496;-68
2024/01/21 09:06:41;;;;;;;8.65;6.75;;;;;;;-2.24;53.76;95143.69;5113883;28;20035;-68
2024/01/21 09:09:11;;;;;;;9.38;6.43;;;;;;;-2.94;55.17;95146.84;5113871;28;20054;-68
2024/01/21 09:11:37;;;;;;;10.00;6.10;;;;;;;-2.47;54.37;95140.69;5095533;28;20098;-68
2024/01/21 09:14:03;;;;;;;10.27;6.05;;;;;;;-2.30;53.80;95152.34;5113416;28;20040;-68
2024/01/21 09:16:29;;;;;;;12.20;6.80;;;;;;;-2.41;53.29;95155.53;5114200;28;20024;-68
2024/01/21 09:18:55;;;;;;;8.82;4.63;;;;;;;-2.58;54.00;95138.72;5113035;28;20070;-68
2024/01/21 09:21:20;;;;;;;7.13;4.80;;;;;;;-2.31;53.30;95159.34;5113544;28;20051;-68
2024/01/21 09:23:46;;;;;;;8.38;5.93;;;;;;;-2.24;52.47;95146.31;5113340;28;20059;-68
2024/01/21 09:26:11;;;;;;;10.93;6.80;;;;;;;-2.33;53.90;95152.72;5112637;28;20035;-68
2024/01/21 09:28:36;;;;;;;7.93;6.28;;;;;;;-2.32;54.08;95159.56;5113313;28;20023;-68
2024/01/21 09:31:02;;;;;;;10.05;7.57;;;;;;;-2.22;53.91;95141.72;5113627;28;20103;-68
2024/01/21 09:33:28;;;;;;;12.93;7.63;;;;;;;-2.02;53.75;95155.53;5112751;28;20043;-68
2024/01/21 09:35:53;;;;;;;12.23;8.18;;;;;;;-2.05;53.58;95136.91;5112607;28;20143;-68
2024/01/21 09:38:21;;;;;;;9.52;7.22;;;;;;;-1.72;52.99;95149.88;5113023;28;20031;-68
2024/01/21 09:41:05;;;;;;;10.88;8.35;;;;;;;-1.69;52.85;95134.59;5113174;28;20027;-68
2024/01/21 09:43:33;;;;;;;16.15;8.18;;;;;;;-1.34;52.35;95129.88;5113455;28;20026;-68
2024/01/21 09:45:59;;;;;;;9.48;6.63;;;;;;;-1.33;50.37;95154.97;5093651;28;20097;-68
2024/01/21 09:48:27;;;;;;;10.25;7.50;;;;;;;-2.15;52.20;95139.91;5112583;28;20065;-68
2024/01/21 09:50:55;;;;;;;11.95;7.18;;;;;;;-2.08;52.15;95130.25;5112396;28;20496;-68
2024/01/21 09:53:21;;;;;;;12.73;6.97;;;;;;;-2.07;51.76;95126.66;5112110;28;20051;-68
2024/01/21 09:56:00;;;;;;;10.32;6.75;;;;;;;-2.04;52.84;95097.56;5112106;28;20464;-68
2024/01/21 09:58:28;;;;;;;7.70;6.45;;;;;;;-1.63;52.60;95143.44;5113302;28;20255;-68
2024/01/21 10:00:53;;;;;;;8.57;6.63;;;;;;;-1.71;51.96;95134.03;5093999;28;20051;-68
2024/01/21 10:03:20;;;;;;;10.45;7.05;;;;;;;-1.66;51.60;95142.03;5112343;28;20496;-68
2024/01/21 10:05:45;;;;;;;10.00;6.60;;;;;;;-1.59;50.93;95121.94;5111991;28;20032;-68
2024/01/21 10:08:11;;;;;;;13.95;6.47;;;;;;;-1.20;50.73;95141.06;5093906;28;20069;-68
2024/01/21 10:10:36;;;;;;;9.98;6.80;;;;;;;-1.00;50.14;95123.50;5112343;28;20510;-69
2024/01/21 10:13:03;;;;;;;9.27;6.10;;;;;;;-1.07;49.42;95128.75;5112902;28;20484;-68
2024/01/21 10:15:33;;;;;;;10.95;7.50;;;;;;;-1.02;49.38;95117.69;5112177;28;20030;-68
2024/01/21 10:17:58;;;;;;;8.82;6.35;;;;;;;-0.76;49.98;95132.41;5112091;28;20043;-68
2024/01/21 10:20:24;;;;;;;11.13;6.45;;;;;;;-0.97;49.97;95120.44;5111813;28;20042;-69
2024/01/21 10:22:50;;;;;;;12.02;7.10;;;;;;;-1.02;49.89;95121.09;5112056;28;20023;-68
2024/01/21 10:25:15;;;;;;;12.98;7.40;;;;;;;-1.50;51.45;95117.28;5112002;28;20484;-68
2024/01/21 10:27:45;;;;;;;15.90;7.22;;;;;;;-1.07;51.09;95120.13;5111345;28;20039;-68
2024/01/21 10:30:12;;;;;;;11.80;7.93;;;;;;;-0.54;50.54;95124.03;5110212;28;20036;-68
2024/01/21 10:32:37;;;;;;;9.18;6.95;;;;;;;-0.95;49.67;95115.84;5112080;28;20518;-68
2024/01/21 10:35:03;;;;;;;13.25;7.05;;;;;;;-1.22;51.41;95112.56;5111306;28;20069;-68
2024/01/21 10:37:30;;;;;;;11.73;7.82;;;;;;;-1.73;52.75;95096.09;5094083;28;20020;-68
2024/01/21 10:39:57;;;;;;;33.95;21.95;;;;;;;-1.46;51.71;95115.88;5111856;28;20027;-68
2024/01/21 10:42:23;;;;;;;10.45;7.32;;;;;;;-1.60;52.23;95109.09;5111984;28;20404;-68
2024/01/21 10:44:49;;;;;;;12.05;7.85;;;;;;;-1.24;52.65;95109.34;5111550;28;20027;-68
2024/01/21 10:47:16;;;;;;;12.57;8.00;;;;;;;-1.34;51.75;95106.38;5111954;28;20038;-68
2024/01/21 10:49:42;;;;;;;12.43;8.23;;;;;;;-1.77;52.69;95074.84;5110480;28;20019;-68
2024/01/21 10:52:09;;;;;;;14.27;8.80;;;;;;;-1.74;53.34;95099.69;5112326;28;20020;-69
2024/01/21 10:54:37;;;;;;;11.52;6.63;;;;;;;-1.62;53.07;95113.72;5111822;28;20024;-69
2024/01/21 10:57:03;;;;;;;11.52;7.70;;;;;;;-1.53;52.17;95096.84;5111913;28;20106;-69
2024/01/21 10:59:30;;;;;;;13.77;9.23;;;;;;;-1.77;53.48;95094.91;5111950;28;20059;-69
2024/01/21 11:01:56;;;;;;;15.88;7.43;;;;;;;-1.46;52.29;95113.28;5111032;28;20058;-69
2024/01/21 11:04:21;;;;;;;17.05;7.63;;;;;;;-1.73;52.44;95103.91;5111961;28;20051;-69
2024/01/21 11:06:48;;;;;;;11.23;6.90;;;;;;;-1.65;51.64;95072.38;5111800;28;20423;-69
2024/01/21 11:09:25;;;;;;;11.10;6.95;;;;;;;-1.66;51.71;95078.63;5111642;28;20038;-69
2024/01/21 11:11:52;;;;;;;13.40;7.80;;;;;;;-1.79;52.12;95099.50;5111626;28;20032;-69
2024/01/21 11:14:37;;;;;;;13.23;7.93;;;;;;;-1.76;52.71;95086.88;5111454;28;20043;-69
2024/01/21 11:17:14;;;;;;;;;;;;;;;-1.98;53.85;95093.34;5112217;28;20039;-69
2024/01/21 11:19:48;;;;;;;14.80;9.48;;;;;;;-1.38;52.63;95102.59;5111585;28;20002;-69
2024/01/21 11:22:14;;;;;;;13.10;8.53;;;;;;;-1.76;52.54;95080.88;5111793;28;20091;-69
2024/01/21 11:24:41;;;;;;;16.13;9.38;;;;;;;-1.79;52.70;95099.50;5111152;28;20028;-69
2024/01/21 11:27:18;;;;;;;18.75;15.45;;;;;;;-1.92;52.29;95080.31;5111007;28;20075;-69